CST,Max TemperatureF,Mean TemperatureF,Min TemperatureF,Max Dew PointF,MeanDew PointF,Min DewpointF,Max Humidity, Mean Humidity, Min Humidity, Max Sea Level PressureIn, Mean Sea Level PressureIn, Min Sea Level PressureIn, Max VisibilityMiles, Mean VisibilityMiles, Min VisibilityMiles, Max Wind SpeedMPH, Mean Wind SpeedMPH, Max Gust SpeedMPH,PrecipitationIn, CloudCover, Events, WindDirDegrees
2011-11-1,66,46,28,41,34,28,100,72,39,30.21,30.16,30.09,10,7,2,15,4,21,0.00,0,,172
2011-11-2,66,56,46,48,40,34,90,57,40,30.14,30.06,29.99,10,10,10,17,8,22,0.00,1,,197
2011-11-3,50,47,43,48,43,32,93,86,65,30.17,30.02,29.93,10,9,6,16,9,29,0.05,7,Rain,32
2011-11-4,55,44,35,38,35,29,100,78,45,30.34,30.28,30.17,10,9,2,13,8,18,0.00,0,,52
2011-11-5,57,44,32,32,29,26,82,58,36,30.31,30.23,30.11,10,10,10,12,7,,0.00,0,,144
2011-11-6,62,52,41,46,41,31,80,63,50,30.15,30.11,30.08,10,10,10,22,12,34,0.00,4,,188
2011-11-7,55,53,51,52,50,43,100,91,64,30.24,30.20,30.14,10,5,0,10,5,,0.22,8,Fog-Rain,113
2011-11-8,57,54,50,57,53,50,100,97,87,30.12,30.00,29.89,10,6,1,9,6,,0.33,8,Rain,138
2011-11-9,60,48,34,56,48,31,100,89,67,30.00,29.75,29.60,10,8,2,32,12,50,0.28,7,Rain,189
2011-11-10,39,36,32,32,29,27,92,79,65,30.05,30.00,29.98,10,10,10,21,12,29,0.00,5,,259
2011-11-11,43,35,27,29,27,25,92,75,58,30.06,29.94,29.80,10,10,8,16,8,,0.00,1,,199
2011-11-12,60,46,33,42,35,29,89,62,41,29.88,29.79,29.67,10,10,10,22,9,36,0.00,1,,199
2011-11-13,70,58,45,53,46,29,72,64,37,29.67,29.54,29.39,10,10,10,30,21,41,0.00,5,,207
2011-11-14,48,44,39,46,41,33,100,87,61,29.77,29.64,29.56,10,8,1,10,5,,0.53,5,Rain,324
2011-11-15,60,46,32,49,43,32,100,90,57,29.85,29.79,29.74,10,5,0,20,5,25,0.00,2,Fog,217
2011-11-16,46,38,30,40,22,14,77,52,36,30.17,30.05,29.84,10,10,10,14,8,21,0.00,0,,302
2011-11-17,35,30,25,17,15,11,72,57,37,30.28,30.21,30.14,10,10,10,24,11,31,0.00,0,,252
2011-11-18,48,36,25,22,18,16,69,43,27,30.26,30.09,29.97,10,10,10,29,13,39,0.00,2,,191
2011-11-19,57,51,45,52,38,22,82,62,39,30.01,29.90,29.82,10,10,10,24,16,33,0.00,8,,202
2011-11-20,57,47,37,52,38,32,89,75,65,30.32,30.17,29.89,10,10,10,22,13,30,0.05,6,Rain,355
2011-11-21,42,37,32,38,35,30,96,91,85,30.34,30.27,30.21,10,9,6,12,8,,0.05,4,Rain,67
2011-11-22,43,40,37,43,39,35,100,93,85,30.20,29.96,29.78,10,5,2,24,13,32,0.76,8,Rain,58
2011-11-23,46,40,35,40,37,34,96,87,76,30.26,30.17,29.98,10,8,2,8,5,,0.00,3,,263
2011-11-24,45,40,35,41,39,34,100,95,86,30.28,30.22,30.13,10,5,0,20,12,26,0.00,7,Fog,207
2011-11-25,57,46,36,45,40,36,100,80,62,30.12,30.03,29.94,10,9,4,22,11,30,0.00,1,,197
2011-11-26,60,55,50,55,48,40,100,78,66,29.97,29.88,29.75,10,10,8,20,13,29,0.12,6,Rain,198
2011-11-27,51,44,37,50,40,32,100,92,79,30.11,29.93,29.76,10,8,4,13,9,24,0.26,8,Rain,336
2011-11-28,37,35,33,36,32,28,100,85,75,30.15,30.05,29.90,10,10,8,15,9,23,0.01,8,Rain-Snow,32
2011-11-29,42,40,37,36,33,27,93,79,67,29.90,29.84,29.79,10,10,7,24,17,38,0.29,8,Rain,4
2011-11-30,42,35,28,28,23,12,82,66,29,30.21,30.05,29.89,10,10,10,14,9,26,0.00,3,,280